Time;durP1;ratioP1;P1;durP2;ratioP2;P2;SDS_P1;SDS_P2;PMS_P1;PMS_P2;Temp;Humidity;BMP_temperature;BMP_pressure;BME280_temperature;BME280_humidity;BME280_pressure;Samples;Min_cycle;Max_cycle;Signal;HPM_P1;HPM_P2
2020/12/14 00:01:17;;;;;;;39.03;23.27;;;;;;;;;;5051977;28;20101;-64
2020/12/14 00:03:42;;;;;;;42.28;25.17;;;;;;;;;;5051385;28;20060;-64
2020/12/14 00:06:08;;;;;;;37.88;21.98;;;;;;;;;;5052793;28;20027;-65
2020/12/14 00:08:34;;;;;;;41.78;20.92;;;;;;;;;;5052536;28;20033;-65
2020/12/14 00:10:59;;;;;;;33.90;19.85;;;;;;;;;;5053215;28;20357;-65
2020/12/14 00:13:24;;;;;;;31.98;18.10;;;;;;;;;;5056274;28;20029;-65
2020/12/14 00:15:50;;;;;;;30.27;17.88;;;;;;;;;;5056347;28;20017;-64
2020/12/14 00:18:15;;;;;;;47.42;29.73;;;;;;;;;;5056208;28;20111;-64
2020/12/14 00:20:41;;;;;;;45.15;27.13;;;;;;;;;;5055001;28;20504;-65
2020/12/14 00:23:06;;;;;;;33.30;19.67;;;;;;;;;;5055997;28;20047;-64
2020/12/14 00:25:32;;;;;;;35.45;20.58;;;;;;;;;;5056129;28;20028;-65
2020/12/14 00:27:57;;;;;;;32.92;19.95;;;;;;;;;;5056234;28;20028;-64
2020/12/14 00:30:24;;;;;;;32.50;18.00;;;;;;;;;;5054948;28;20044;-64
2020/12/14 00:32:49;;;;;;;30.85;18.02;;;;;;;;;;5056110;28;20040;-64
2020/12/14 00:35:15;;;;;;;33.67;18.98;;;;;;;;;;5055946;28;20017;-65
2020/12/14 00:37:40;;;;;;;31.30;18.20;;;;;;;;;;5054386;28;20118;-65
2020/12/14 00:40:06;;;;;;;33.03;18.98;;;;;;;;;;5055746;28;20032;-65
2020/12/14 00:42:31;;;;;;;33.97;19.17;;;;;;;;;;5055943;28;20155;-64
2020/12/14 00:44:56;;;;;;;33.85;18.83;;;;;;;;;;5054196;28;20029;-63
2020/12/14 00:47:22;;;;;;;34.28;20.02;;;;;;;;;;5055865;28;20060;-63
2020/12/14 00:49:47;;;;;;;35.63;19.48;;;;;;;;;;5055706;28;20549;-64
2020/12/14 00:52:13;;;;;;;32.15;18.27;;;;;;;;;;5054198;28;20106;-64
2020/12/14 00:54:38;;;;;;;31.73;18.73;;;;;;;;;;5055754;28;20021;-63
2020/12/14 00:57:04;;;;;;;34.38;18.80;;;;;;;;;;5055852;28;20116;-63
2020/12/14 00:59:29;;;;;;;34.85;19.45;;;;;;;;;;5055308;28;20037;-63
2020/12/14 01:01:55;;;;;;;39.78;22.45;;;;;;;;;;5055138;28;20360;-64
2020/12/14 01:04:20;;;;;;;40.03;23.52;;;;;;;;;;5055308;28;20025;-63
2020/12/14 01:06:55;;;;;;;43.72;23.67;;;;;;;;;;5070584;28;20040;-63
2020/12/14 01:09:21;;;;;;;36.88;19.77;;;;;;;;;;5054090;28;20036;-63
2020/12/14 01:11:46;;;;;;;36.92;21.08;;;;;;;;;;5055159;28;20021;-63
2020/12/14 01:14:12;;;;;;;40.88;21.52;;;;;;;;;;5055242;28;20040;-64
2020/12/14 01:16:37;;;;;;;40.83;20.83;;;;;;;;;;5055060;28;20017;-64
2020/12/14 01:19:03;;;;;;;37.75;20.85;;;;;;;;;;5053933;28;20115;-64
2020/12/14 01:21:29;;;;;;;41.28;21.98;;;;;;;;;;5054914;28;20479;-64
2020/12/14 01:23:54;;;;;;;36.88;20.95;;;;;;;;;;5055134;28;20114;-64
2020/12/14 01:26:20;;;;;;;33.75;19.83;;;;;;;;;;5053776;28;20024;-64
2020/12/14 01:28:45;;;;;;;36.58;20.35;;;;;;;;;;5055156;28;20029;-64
2020/12/14 01:31:11;;;;;;;37.92;19.70;;;;;;;;;;5054959;28;20017;-65
2020/12/14 01:33:36;;;;;;;33.92;19.25;;;;;;;;;;5054763;28;20406;-64
2020/12/14 01:36:02;;;;;;;36.20;19.70;;;;;;;;;;5054965;28;20028;-64
2020/12/14 01:38:29;;;;;;;37.00;19.70;;;;;;;;;;5054744;28;20025;-64
2020/12/14 01:40:55;;;;;;;35.55;20.33;;;;;;;;;;5054772;28;20031;-65
2020/12/14 01:43:22;;;;;;;35.60;18.83;;;;;;;;;;5054464;28;20115;-65
2020/12/14 01:45:49;;;;;;;38.30;20.63;;;;;;;;;;5054553;28;20497;-65
2020/12/14 01:48:14;;;;;;;37.58;20.58;;;;;;;;;;5053627;28;20047;-65
2020/12/14 01:50:40;;;;;;;36.85;20.65;;;;;;;;;;5054627;28;20025;-65
2020/12/14 01:53:06;;;;;;;34.20;19.55;;;;;;;;;;5054246;28;20475;-65
2020/12/14 01:55:34;;;;;;;32.60;19.25;;;;;;;;;;5053294;28;20070;-65
2020/12/14 01:57:59;;;;;;;34.45;19.45;;;;;;;;;;5054662;28;20112;-65
2020/12/14 02:00:25;;;;;;;34.22;19.30;;;;;;;;;;5054634;28;20535;-65
2020/12/14 02:02:50;;;;;;;36.45;20.13;;;;;;;;;;5053382;28;20025;-65
2020/12/14 02:05:16;;;;;;;32.47;18.77;;;;;;;;;;5054437;28;20024;-65
2020/12/14 02:07:41;;;;;;;33.42;19.13;;;;;;;;;;5054318;28;20071;-65
2020/12/14 02:10:07;;;;;;;36.90;19.17;;;;;;;;;;5053068;28;20115;-65
2020/12/14 02:12:32;;;;;;;36.08;19.40;;;;;;;;;;5054008;28;20041;-65
2020/12/14 02:14:58;;;;;;;34.25;19.02;;;;;;;;;;5054210;28;20024;-65
2020/12/14 02:17:26;;;;;;;35.08;20.25;;;;;;;;;;5053974;28;20033;-65
2020/12/14 02:19:53;;;;;;;33.65;18.85;;;;;;;;;;5052863;28;20103;-64
2020/12/14 02:22:19;;;;;;;35.95;20.08;;;;;;;;;;5052818;28;20069;-64
2020/12/14 02:25:05;;;;;;;33.63;19.67;;;;;;;;;;5053946;28;20363;-65
2020/12/14 02:27:31;;;;;;;37.08;20.10;;;;;;;;;;5053289;28;20403;-65
2020/12/14 02:29:57;;;;;;;39.90;19.85;;;;;;;;;;5053907;28;20032;-65
2020/12/14 02:32:25;;;;;;;35.88;20.02;;;;;;;;;;5053475;28;20033;-65
2020/12/14 02:34:50;;;;;;;41.78;22.50;;;;;;;;;;5052598;28;20029;-65
2020/12/14 02:37:17;;;;;;;39.05;21.55;;;;;;;;;;5053845;28;20024;-65
2020/12/14 02:39:43;;;;;;;41.60;21.05;;;;;;;;;;5053815;28;20023;-65
2020/12/14 02:42:10;;;;;;;39.85;22.10;;;;;;;;;;5053814;28;20032;-65
2020/12/14 02:44:36;;;;;;;39.08;21.20;;;;;;;;;;5053599;28;20108;-65
2020/12/14 02:47:02;;;;;;;41.03;22.05;;;;;;;;;;5052203;28;20033;-65
2020/12/14 02:49:27;;;;;;;38.40;21.05;;;;;;;;;;5053411;28;20030;-65
2020/12/14 02:51:53;;;;;;;38.83;21.20;;;;;;;;;;5052094;28;20044;-65
2020/12/14 02:54:19;;;;;;;41.53;22.13;;;;;;;;;;5053188;28;20500;-66
2020/12/14 02:56:45;;;;;;;41.47;21.73;;;;;;;;;;5053668;28;20025;-66
2020/12/14 02:59:11;;;;;;;45.13;23.73;;;;;;;;;;5052302;28;20472;-65
2020/12/14 03:01:37;;;;;;;38.97;20.92;;;;;;;;;;5053534;28;20076;-66
2020/12/14 03:04:02;;;;;;;36.70;20.98;;;;;;;;;;5053300;28;20028;-65
2020/12/14 03:06:27;;;;;;;36.22;19.75;;;;;;;;;;5053458;28;20040;-63
2020/12/14 03:08:53;;;;;;;39.22;21.08;;;;;;;;;;5053410;28;20447;-65
2020/12/14 03:11:18;;;;;;;41.03;21.63;;;;;;;;;;5051754;28;20039;-64
2020/12/14 03:13:44;;;;;;;35.75;19.98;;;;;;;;;;5052983;28;20021;-65
2020/12/14 03:16:09;;;;;;;39.97;20.55;;;;;;;;;;5053555;28;20031;-64
2020/12/14 03:18:35;;;;;;;39.30;21.25;;;;;;;;;;5053044;28;20021;-65
2020/12/14 03:21:00;;;;;;;42.92;20.77;;;;;;;;;;5053120;28;20029;-65
2020/12/14 03:23:27;;;;;;;35.53;20.00;;;;;;;;;;5052146;28;20024;-65
2020/12/14 03:25:52;;;;;;;37.35;20.25;;;;;;;;;;5053267;28;20495;-65
2020/12/14 03:28:18;;;;;;;38.72;20.23;;;;;;;;;;5053136;28;20056;-65
2020/12/14 03:30:43;;;;;;;38.53;20.10;;;;;;;;;;5052201;28;20036;-65
2020/12/14 03:33:09;;;;;;;36.70;20.90;;;;;;;;;;5053102;28;20021;-65
2020/12/14 03:35:34;;;;;;;40.05;21.70;;;;;;;;;;5053071;28;20120;-65
2020/12/14 03:37:59;;;;;;;40.85;22.42;;;;;;;;;;5053254;28;20020;-64
2020/12/14 03:40:25;;;;;;;37.65;21.17;;;;;;;;;;5053099;28;20032;-64
2020/12/14 03:42:50;;;;;;;41.25;21.55;;;;;;;;;;5053055;28;20055;-63
2020/12/14 03:45:16;;;;;;;39.25;21.92;;;;;;;;;;5054516;28;20398;-63
2020/12/14 03:47:41;;;;;;;42.30;22.15;;;;;;;;;;5055772;28;20024;-63
2020/12/14 03:50:06;;;;;;;40.35;22.20;;;;;;;;;;5055554;28;20021;-64
2020/12/14 03:52:32;;;;;;;43.33;22.85;;;;;;;;;;5056328;28;20465;-64
2020/12/14 03:54:57;;;;;;;45.50;23.70;;;;;;;;;;5057162;28;20036;-63
2020/12/14 03:57:23;;;;;;;45.72;23.40;;;;;;;;;;5056687;28;20040;-63
2020/12/14 03:59:48;;;;;;;42.20;23.15;;;;;;;;;;5056605;28;20029;-63
2020/12/14 04:02:15;;;;;;;45.70;22.77;;;;;;;;;;5056609;28;20047;-63
2020/12/14 04:04:40;;;;;;;44.53;23.45;;;;;;;;;;5055958;28;20025;-63
2020/12/14 04:07:06;;;;;;;46.17;23.75;;;;;;;;;;5056316;28;20074;-63
2020/12/14 04:09:31;;;;;;;46.55;24.85;;;;;;;;;;5056090;28;20043;-63
2020/12/14 04:11:56;;;;;;;45.97;23.73;;;;;;;;;;5056114;28;20109;-63
2020/12/14 04:14:22;;;;;;;45.10;25.23;;;;;;;;;;5056282;28;20025;-63
2020/12/14 04:16:51;;;;;;;49.25;25.83;;;;;;;;;;5056507;28;20025;-63
2020/12/14 04:19:22;;;;;;;49.22;26.08;;;;;;;;;;5055562;28;20025;-63
2020/12/14 04:21:48;;;;;;;49.67;25.65;;;;;;;;;;5055497;28;21093;-64
2020/12/14 04:24:15;;;;;;;45.05;25.13;;;;;;;;;;5056037;28;20036;-63
2020/12/14 04:26:40;;;;;;;47.97;25.92;;;;;;;;;;5056294;28;20115;-63
2020/12/14 04:29:05;;;;;;;51.95;25.95;;;;;;;;;;5056115;28;20438;-63
2020/12/14 04:31:31;;;;;;;53.05;26.75;;;;;;;;;;5054705;28;20147;-63
2020/12/14 04:33:56;;;;;;;52.90;25.92;;;;;;;;;;5056104;28;20009;-63
2020/12/14 04:36:22;;;;;;;51.80;27.08;;;;;;;;;;5055981;28;20021;-63
2020/12/14 04:38:47;;;;;;;52.00;26.10;;;;;;;;;;5055926;28;20078;-63
2020/12/14 04:41:13;;;;;;;53.80;26.40;;;;;;;;;;5055684;28;20506;-63
2020/12/14 04:43:39;;;;;;;52.92;27.25;;;;;;;;;;5055071;28;20025;-63
2020/12/14 04:46:06;;;;;;;56.97;26.60;;;;;;;;;;5055425;28;20111;-63
2020/12/14 04:48:31;;;;;;;55.42;28.77;;;;;;;;;;5054789;28;20021;-67
2020/12/14 04:50:57;;;;;;;58.35;29.02;;;;;;;;;;5054794;28;20079;-67
2020/12/14 04:53:23;;;;;;;60.90;28.25;;;;;;;;;;5054432;28;20043;-68
2020/12/14 04:55:48;;;;;;;57.55;29.98;;;;;;;;;;5055005;28;20056;-67
2020/12/14 04:58:14;;;;;;;56.75;29.67;;;;;;;;;;5054193;28;20021;-63
2020/12/14 05:00:39;;;;;;;57.78;29.65;;;;;;;;;;5055032;28;20025;-63
2020/12/14 05:03:05;;;;;;;55.40;29.45;;;;;;;;;;5054825;28;20014;-63
2020/12/14 05:05:31;;;;;;;52.67;28.02;;;;;;;;;;5053481;28;20028;-64
2020/12/14 05:07:56;;;;;;;52.83;28.33;;;;;;;;;;5055361;28;20025;-64
2020/12/14 05:10:23;;;;;;;54.90;28.85;;;;;;;;;;5044392;28;20460;-64
2020/12/14 05:12:48;;;;;;;54.00;27.27;;;;;;;;;;5033757;28;20036;-63
2020/12/14 05:15:17;;;;;;;58.33;30.05;;;;;;;;;;5049269;28;20029;-64
2020/12/14 05:17:42;;;;;;;56.42;29.98;;;;;;;;;;5054297;28;20451;-64
2020/12/14 05:20:18;;;;;;;56.33;29.85;;;;;;;;;;5054068;28;20124;-64
2020/12/14 05:22:58;;;;;;;55.08;28.92;;;;;;;;;;5045796;28;20078;-68
2020/12/14 05:25:24;;;;;;;50.13;26.88;;;;;;;;;;5051698;28;20021;-68
2020/12/14 05:27:59;;;;;;;51.22;27.77;;;;;;;;;;5053730;28;20025;-68
2020/12/14 05:30:31;;;;;;;45.55;25.80;;;;;;;;;;5055235;28;20475;-68
2020/12/14 05:33:00;;;;;;;50.00;26.02;;;;;;;;;;5055122;28;20463;-68
2020/12/14 05:35:32;;;;;;;43.03;24.38;;;;;;;;;;5055085;28;20067;-68
2020/12/14 05:38:16;;;;;;;50.13;26.42;;;;;;;;;;5054505;28;20028;-68
2020/12/14 05:40:42;;;;;;;49.45;26.27;;;;;;;;;;5053804;28;20033;-69
2020/12/14 05:43:18;;;;;;;51.88;27.27;;;;;;;;;;5053753;28;20372;-68
2020/12/14 05:45:44;;;;;;;45.08;25.40;;;;;;;;;;5053975;28;20430;-69
2020/12/14 05:48:22;;;;;;;42.80;25.20;;;;;;;;;;5054361;28;20029;-68
2020/12/14 05:50:48;;;;;;;47.63;26.63;;;;;;;;;;5053205;28;20031;-68
2020/12/14 05:53:17;;;;;;;48.67;27.23;;;;;;;;;;5053908;28;20029;-68
2020/12/14 05:55:43;;;;;;;53.08;28.23;;;;;;;;;;5053141;28;20104;-68
2020/12/14 05:58:12;;;;;;;50.13;28.27;;;;;;;;;;5054441;28;20024;-68
2020/12/14 06:00:40;;;;;;;48.50;26.27;;;;;;;;;;5053050;28;20032;-68
2020/12/14 06:03:06;;;;;;;53.08;28.45;;;;;;;;;;5054407;28;20031;-68
2020/12/14 06:05:31;;;;;;;52.47;29.13;;;;;;;;;;5054152;28;20033;-68
2020/12/14 06:08:06;;;;;;;51.05;28.75;;;;;;;;;;5054004;28;20021;-68
2020/12/14 06:10:32;;;;;;;53.03;32.10;;;;;;;;;;5054684;28;20033;-68
2020/12/14 06:13:05;;;;;;;56.25;31.00;;;;;;;;;;5052846;28;20548;-68
2020/12/14 06:15:32;;;;;;;53.40;29.75;;;;;;;;;;5054396;28;20059;-68
2020/12/14 06:18:00;;;;;;;48.55;27.90;;;;;;;;;;5054242;28;20471;-69
2020/12/14 06:20:26;;;;;;;57.25;31.73;;;;;;;;;;5054248;28;20472;-69
2020/12/14 06:22:58;;;;;;;52.88;28.88;;;;;;;;;;5053947;28;20060;-68
2020/12/14 06:25:24;;;;;;;50.50;29.08;;;;;;;;;;5054275;28;20033;-68
2020/12/14 06:27:50;;;;;;;53.33;28.75;;;;;;;;;;5052946;28;20017;-67
2020/12/14 06:30:27;;;;;;;54.75;29.25;;;;;;;;;;5053710;28;20025;-68
2020/12/14 06:33:09;;;;;;;52.92;29.05;;;;;;;;;;5052220;28;20476;-68
2020/12/14 06:35:41;;;;;;;58.05;29.95;;;;;;;;;;5044905;28;20029;-68
2020/12/14 06:38:06;;;;;;;54.28;29.38;;;;;;;;;;5050185;28;20033;-63
2020/12/14 06:40:52;;;;;;;51.60;29.20;;;;;;;;;;5034010;28;20028;-68
2020/12/14 06:43:33;;;;;;;53.00;29.10;;;;;;;;;;5033876;28;20041;-68
2020/12/14 06:46:01;;;;;;;48.05;26.50;;;;;;;;;;5033590;28;20503;-68
2020/12/14 06:48:46;;;;;;;53.80;29.27;;;;;;;;;;5016133;28;20068;-68
2020/12/14 06:51:13;;;;;;;48.17;27.08;;;;;;;;;;5033841;28;20032;-68
2020/12/14 06:53:46;;;;;;;47.50;26.35;;;;;;;;;;5046359;28;20044;-68
2020/12/14 06:56:15;;;;;;;52.38;28.55;;;;;;;;;;5053419;28;20036;-68
2020/12/14 06:58:44;;;;;;;49.30;27.15;;;;;;;;;;5052542;28;20020;-68
2020/12/14 07:01:29;;;;;;;48.55;28.15;;;;;;;;;;5053664;28;20364;-68
2020/12/14 07:03:54;;;;;;;50.42;27.65;;;;;;;;;;5052587;28;20490;-68
2020/12/14 07:06:26;;;;;;;47.40;26.83;;;;;;;;;;5053269;28;20020;-68
2020/12/14 07:08:52;;;;;;;46.20;25.98;;;;;;;;;;5052024;28;20064;-68
2020/12/14 07:11:18;;;;;;;47.50;26.77;;;;;;;;;;5053507;28;20049;-68
2020/12/14 07:13:44;;;;;;;50.78;26.42;;;;;;;;;;5053400;28;20463;-68
2020/12/14 07:16:11;;;;;;;48.35;26.40;;;;;;;;;;5053438;28;20052;-68
2020/12/14 07:18:37;;;;;;;42.65;24.88;;;;;;;;;;5053323;28;20364;-67
2020/12/14 07:21:08;;;;;;;47.80;26.83;;;;;;;;;;5056286;28;20074;-67
2020/12/14 07:23:35;;;;;;;51.63;26.88;;;;;;;;;;5057562;28;20028;-68
2020/12/14 07:26:02;;;;;;;45.58;25.48;;;;;;;;;;5056272;28;20691;-67
2020/12/14 07:28:36;;;;;;;46.03;25.58;;;;;;;;;;5056349;28;20055;-68
2020/12/14 07:31:09;;;;;;;42.22;24.80;;;;;;;;;;5056836;28;20025;-64
2020/12/14 07:33:35;;;;;;;43.97;25.48;;;;;;;;;;5046141;28;20028;-64
2020/12/14 07:36:04;;;;;;;46.30;26.15;;;;;;;;;;5046831;28;20398;-64
2020/12/14 07:38:29;;;;;;;45.92;26.58;;;;;;;;;;5056990;28;20051;-64
2020/12/14 07:41:05;;;;;;;43.65;24.20;;;;;;;;;;5039125;28;20532;-64
2020/12/14 07:43:30;;;;;;;40.45;22.95;;;;;;;;;;5035891;28;20407;-64
2020/12/14 07:45:56;;;;;;;42.53;23.52;;;;;;;;;;5037010;28;20032;-64
2020/12/14 07:48:21;;;;;;;46.50;25.77;;;;;;;;;;5036108;28;20071;-64
2020/12/14 07:50:47;;;;;;;41.30;23.10;;;;;;;;;;5035077;28;20033;-63
2020/12/14 07:53:15;;;;;;;43.47;23.80;;;;;;;;;;5036028;28;20046;-64
2020/12/14 07:55:40;;;;;;;48.67;25.30;;;;;;;;;;5035357;28;20030;-63
2020/12/14 07:58:06;;;;;;;44.80;25.70;;;;;;;;;;5036124;28;20025;-63
2020/12/14 08:00:31;;;;;;;45.97;24.15;;;;;;;;;;5035967;28;20394;-64
2020/12/14 08:03:05;;;;;;;38.45;22.83;;;;;;;;;;5036379;28;20037;-63
2020/12/14 08:05:30;;;;;;;45.15;24.42;;;;;;;;;;5034881;28;20395;-63
2020/12/14 08:08:01;;;;;;;46.33;27.65;;;;;;;;;;5036186;28;20029;-63
2020/12/14 08:10:34;;;;;;;42.03;26.10;;;;;;;;;;5036181;28;20063;-63
2020/12/14 08:13:01;;;;;;;39.60;22.45;;;;;;;;;;5036001;28;20476;-63
2020/12/14 08:15:28;;;;;;;48.47;27.02;;;;;;;;;;5036123;28;20026;-63
2020/12/14 08:17:54;;;;;;;41.53;23.42;;;;;;;;;;5036120;28;20029;-63
2020/12/14 08:20:23;;;;;;;40.55;23.15;;;;;;;;;;5036178;28;20071;-63
2020/12/14 08:22:49;;;;;;;39.70;22.37;;;;;;;;;;5034718;28;20476;-63
2020/12/14 08:25:41;;;;;;;42.00;24.83;;;;;;;;;;5036087;28;20105;-63
2020/12/14 08:28:07;;;;;;;43.95;24.95;;;;;;;;;;5034592;28;20492;-63
2020/12/14 08:30:32;;;;;;;41.72;24.95;;;;;;;;;;5035829;28;20071;-63
2020/12/14 08:33:24;;;;;;;37.75;22.58;;;;;;;;;;5035723;28;20048;-63
2020/12/14 08:35:53;;;;;;;42.35;23.15;;;;;;;;;;5040159;28;20077;-63
2020/12/14 08:38:19;;;;;;;41.47;23.65;;;;;;;;;;5043536;28;20472;-63
2020/12/14 08:40:51;;;;;;;43.63;26.15;;;;;;;;;;5037962;28;20482;-64
2020/12/14 08:43:17;;;;;;;35.70;22.75;;;;;;;;;;5043429;28;20048;-63
2020/12/14 08:46:01;;;;;;;42.13;24.40;;;;;;;;;;5050079;28;20518;-63
2020/12/14 08:48:31;;;;;;;53.80;30.48;;;;;;;;;;5046447;28;20112;-63
2020/12/14 08:51:09;;;;;;;42.95;27.38;;;;;;;;;;5049726;28;20109;-63
2020/12/14 08:53:35;;;;;;;46.78;27.92;;;;;;;;;;5048804;28;20155;-64
2020/12/14 08:56:03;;;;;;;46.58;26.90;;;;;;;;;;5055337;28;20108;-63
2020/12/14 08:58:28;;;;;;;38.60;23.40;;;;;;;;;;5044334;28;20021;-63
2020/12/14 09:00:53;;;;;;;44.58;28.65;;;;;;;;;;5043196;28;20460;-63
2020/12/14 09:03:20;;;;;;;50.42;34.92;;;;;;;;;;5046501;28;20025;-63
2020/12/14 09:05:45;;;;;;;43.40;29.13;;;;;;;;;;5041657;28;20025;-63
2020/12/14 09:08:15;;;;;;;44.35;26.15;;;;;;;;;;5047999;28;20029;-63
2020/12/14 09:10:40;;;;;;;54.42;31.70;;;;;;;;;;5046599;28;20029;-63
2020/12/14 09:13:07;;;;;;;52.63;28.73;;;;;;;;;;5035434;28;20112;-68
2020/12/14 09:15:33;;;;;;;43.38;24.75;;;;;;;;;;5035398;28;20014;-68
2020/12/14 09:18:05;;;;;;;40.10;24.45;;;;;;;;;;5035386;28;20072;-68
2020/12/14 09:20:32;;;;;;;41.88;24.58;;;;;;;;;;5035268;28;20025;-67
2020/12/14 09:22:57;;;;;;;50.95;31.95;;;;;;;;;;5033982;28;20041;-68
2020/12/14 09:25:23;;;;;;;49.90;30.08;;;;;;;;;;5035238;28;20523;-68
2020/12/14 09:27:48;;;;;;;55.00;30.52;;;;;;;;;;5035086;28;20052;-68
2020/12/14 09:30:14;;;;;;;82.45;42.60;;;;;;;;;;5034984;28;20033;-68
2020/12/14 09:32:39;;;;;;;48.58;28.33;;;;;;;;;;5035209;28;20395;-68
2020/12/14 09:35:05;;;;;;;52.30;28.58;;;;;;;;;;5035199;28;20057;-68
2020/12/14 09:37:31;;;;;;;66.70;34.65;;;;;;;;;;5035079;28;20020;-68
2020/12/14 09:39:57;;;;;;;222.40;103.28;;;;;;;;;;5035023;28;20494;-68
2020/12/14 09:42:23;;;;;;;126.60;72.65;;;;;;;;;;5034918;28;20071;-68
2020/12/14 09:44:48;;;;;;;81.75;46.33;;;;;;;;;;5034696;28;20034;-68
2020/12/14 09:47:14;;;;;;;72.93;39.05;;;;;;;;;;5035049;28;20031;-68
2020/12/14 09:49:39;;;;;;;60.58;32.70;;;;;;;;;;5033508;28;20035;-67
2020/12/14 09:52:05;;;;;;;49.70;27.58;;;;;;;;;;5032821;28;20029;-67
2020/12/14 09:54:30;;;;;;;46.40;26.35;;;;;;;;;;5034175;28;20523;-67
2020/12/14 09:56:56;;;;;;;43.55;23.60;;;;;;;;;;5034483;28;20038;-67
2020/12/14 09:59:21;;;;;;;45.90;26.70;;;;;;;;;;5034465;28;20436;-64
2020/12/14 10:01:47;;;;;;;32.90;18.45;;;;;;;;;;5039471;28;20013;-64
2020/12/14 10:04:13;;;;;;;75.45;42.47;;;;;;;;;;5038185;28;20059;-64
2020/12/14 10:06:38;;;;;;;52.33;29.13;;;;;;;;;;5043673;28;20484;-64
2020/12/14 10:09:04;;;;;;;34.97;18.02;;;;;;;;;;5045826;28;20024;-64
2020/12/14 10:11:30;;;;;;;45.50;25.75;;;;;;;;;;5043394;28;20082;-64
2020/12/14 10:13:56;;;;;;;47.55;27.35;;;;;;;;;;5048872;28;20115;-64
2020/12/14 10:16:22;;;;;;;45.00;25.00;;;;;;;;;;5043328;28;20101;-64
2020/12/14 10:18:47;;;;;;;42.95;25.40;;;;;;;;;;5049441;28;20111;-64
2020/12/14 10:21:14;;;;;;;53.78;31.00;;;;;;;;;;5033013;28;20125;-64
2020/12/14 10:23:40;;;;;;;52.00;29.27;;;;;;;;;;5033839;28;20547;-64
2020/12/14 10:26:07;;;;;;;52.45;33.10;;;;;;;;;;5038583;28;20184;-64
2020/12/14 10:28:33;;;;;;;40.00;23.45;;;;;;;;;;5042442;28;20025;-64
2020/12/14 10:31:00;;;;;;;50.25;31.90;;;;;;;;;;5041785;28;20127;-63
2020/12/14 10:33:28;;;;;;;221.13;152.63;;;;;;;;;;5045881;28;20113;-64
2020/12/14 10:35:54;;;;;;;66.90;44.08;;;;;;;;;;5049083;28;20071;-63
2020/12/14 10:38:20;;;;;;;42.72;25.05;;;;;;;;;;5053833;28;20024;-64
2020/12/14 10:40:45;;;;;;;48.50;27.13;;;;;;;;;;5035630;28;20017;-64
2020/12/14 10:43:11;;;;;;;43.13;25.10;;;;;;;;;;5053750;28;20532;-64
2020/12/14 10:45:36;;;;;;;49.33;29.95;;;;;;;;;;5053573;28;20017;-64
2020/12/14 10:48:02;;;;;;;42.80;25.05;;;;;;;;;;5053599;28;20040;-64
2020/12/14 10:50:28;;;;;;;59.22;41.20;;;;;;;;;;5053212;28;20027;-63
2020/12/14 10:52:54;;;;;;;58.40;40.95;;;;;;;;;;5052750;28;20395;-64
2020/12/14 10:55:19;;;;;;;43.15;26.48;;;;;;;;;;5052138;28;20124;-64
2020/12/14 10:57:45;;;;;;;42.22;24.65;;;;;;;;;;5053591;28;20021;-64
2020/12/14 11:00:11;;;;;;;48.55;29.65;;;;;;;;;;5053404;28;20529;-63
2020/12/14 11:02:41;;;;;;;50.78;32.28;;;;;;;;;;5053559;28;20082;-63
2020/12/14 11:05:07;;;;;;;72.38;48.03;;;;;;;;;;5052370;28;20021;-63
2020/12/14 11:07:33;;;;;;;65.70;42.95;;;;;;;;;;5052203;28;20069;-63
2020/12/14 11:09:59;;;;;;;40.30;23.70;;;;;;;;;;5053550;28;20059;-63
2020/12/14 11:12:25;;;;;;;40.42;25.05;;;;;;;;;;5053231;28;20088;-63
2020/12/14 11:14:50;;;;;;;39.22;25.35;;;;;;;;;;5053420;28;20021;-63
2020/12/14 11:17:16;;;;;;;42.20;25.23;;;;;;;;;;5052121;28;20028;-63
2020/12/14 11:19:41;;;;;;;39.25;23.95;;;;;;;;;;5053621;28;20032;-63
2020/12/14 11:22:07;;;;;;;40.92;27.05;;;;;;;;;;5053253;28;20043;-63
2020/12/14 11:24:32;;;;;;;39.35;24.15;;;;;;;;;;5052166;28;20027;-63
2020/12/14 11:26:58;;;;;;;33.97;22.20;;;;;;;;;;5053234;28;20567;-63
2020/12/14 11:29:25;;;;;;;36.25;21.50;;;;;;;;;;5053222;28;20025;-63
2020/12/14 11:31:52;;;;;;;37.10;22.70;;;;;;;;;;5053087;28;20099;-63
2020/12/14 11:34:17;;;;;;;39.25;23.77;;;;;;;;;;5053149;28;20017;-63
2020/12/14 11:36:43;;;;;;;39.17;24.20;;;;;;;;;;5045991;28;20029;-63
2020/12/14 11:39:08;;;;;;;35.60;21.65;;;;;;;;;;5048220;28;20017;-63
2020/12/14 11:41:34;;;;;;;36.15;23.92;;;;;;;;;;5042675;28;20079;-64
2020/12/14 11:43:59;;;;;;;46.08;26.77;;;;;;;;;;5048381;28;20483;-63
2020/12/14 11:46:26;;;;;;;42.47;25.33;;;;;;;;;;5041155;28;20079;-64
2020/12/14 11:48:51;;;;;;;40.38;22.95;;;;;;;;;;5039782;28;20025;-64
2020/12/14 11:51:17;;;;;;;44.97;26.15;;;;;;;;;;5040134;28;20506;-64
2020/12/14 11:53:42;;;;;;;45.47;24.77;;;;;;;;;;5041158;28;20454;-64
2020/12/14 11:56:08;;;;;;;44.30;26.48;;;;;;;;;;5052843;28;20055;-64
2020/12/14 11:58:33;;;;;;;42.38;25.13;;;;;;;;;;5051866;28;20131;-64
2020/12/14 12:00:59;;;;;;;55.70;31.30;;;;;;;;;;5052740;28;20371;-63
2020/12/14 12:03:24;;;;;;;51.85;28.60;;;;;;;;;;5052780;28;20028;-64
2020/12/14 12:05:50;;;;;;;47.00;26.08;;;;;;;;;;5053463;28;20514;-64
2020/12/14 12:08:15;;;;;;;46.55;27.42;;;;;;;;;;5056476;28;20035;-64
2020/12/14 12:10:41;;;;;;;42.03;25.23;;;;;;;;;;5056176;28;20031;-64
2020/12/14 12:13:06;;;;;;;40.10;22.90;;;;;;;;;;5056142;28;20031;-64
2020/12/14 12:15:32;;;;;;;62.15;34.03;;;;;;;;;;5056229;28;20025;-64
2020/12/14 12:17:57;;;;;;;44.83;28.05;;;;;;;;;;5054979;28;20436;-64
2020/12/14 12:20:23;;;;;;;55.75;30.48;;;;;;;;;;5056289;28;20025;-64
2020/12/14 12:22:48;;;;;;;40.97;23.35;;;;;;;;;;5056246;28;20045;-64
2020/12/14 12:25:14;;;;;;;39.90;22.73;;;;;;;;;;5056539;28;20060;-64
2020/12/14 12:27:39;;;;;;;42.20;25.35;;;;;;;;;;5056178;28;20376;-64
2020/12/14 12:30:05;;;;;;;56.35;31.38;;;;;;;;;;5056256;28;20078;-64
2020/12/14 12:32:30;;;;;;;56.25;34.45;;;;;;;;;;5046049;28;20028;-64
2020/12/14 12:34:56;;;;;;;41.33;25.88;;;;;;;;;;5044437;28;20025;-64
2020/12/14 12:37:22;;;;;;;34.40;22.45;;;;;;;;;;5046470;28;20021;-64
2020/12/14 12:39:47;;;;;;;32.20;21.55;;;;;;;;;;5044323;28;20028;-64
2020/12/14 12:42:13;;;;;;;35.92;21.30;;;;;;;;;;5046978;28;20017;-64
2020/12/14 12:44:38;;;;;;;40.45;23.95;;;;;;;;;;5040751;28;20029;-64
2020/12/14 12:47:04;;;;;;;32.03;20.00;;;;;;;;;;5045784;28;20380;-64
2020/12/14 12:49:30;;;;;;;38.83;23.63;;;;;;;;;;5049873;28;20446;-64
2020/12/14 12:51:58;;;;;;;69.03;43.03;;;;;;;;;;5038040;28;20056;-64
2020/12/14 12:54:23;;;;;;;69.50;41.10;;;;;;;;;;5035257;28;20081;-64
2020/12/14 12:56:49;;;;;;;41.92;26.17;;;;;;;;;;5035633;28;20053;-64
2020/12/14 12:59:15;;;;;;;136.55;77.75;;;;;;;;;;5035785;28;20113;-64
2020/12/14 13:01:41;;;;;;;96.57;52.13;;;;;;;;;;5036004;28;20506;-64
2020/12/14 13:04:06;;;;;;;24.98;15.93;;;;;;;;;;5035239;28;20033;-64
2020/12/14 13:06:32;;;;;;;28.30;17.95;;;;;;;;;;5035303;28;20025;-64
2020/12/14 13:08:58;;;;;;;27.98;16.88;;;;;;;;;;5035321;28;20028;-64
2020/12/14 13:11:24;;;;;;;27.95;16.85;;;;;;;;;;5042362;28;20047;-64
2020/12/14 13:13:50;;;;;;;30.80;17.95;;;;;;;;;;5047328;28;20028;-64
2020/12/14 13:16:18;;;;;;;29.10;18.02;;;;;;;;;;5043388;28;20025;-64
2020/12/14 13:18:44;;;;;;;34.22;19.73;;;;;;;;;;5043965;28;20029;-64
2020/12/14 13:21:09;;;;;;;29.02;15.50;;;;;;;;;;5049056;28;20079;-64
2020/12/14 13:23:35;;;;;;;24.48;14.52;;;;;;;;;;5035605;28;20057;-64
2020/12/14 13:26:00;;;;;;;26.85;14.52;;;;;;;;;;5035242;28;20392;-64
2020/12/14 13:28:25;;;;;;;26.80;14.80;;;;;;;;;;5042108;28;20656;-65
2020/12/14 13:30:52;;;;;;;25.35;15.57;;;;;;;;;;5046438;28;20033;-64
2020/12/14 13:33:17;;;;;;;32.30;18.73;;;;;;;;;;5042908;28;20472;-63
2020/12/14 13:35:43;;;;;;;24.15;15.40;;;;;;;;;;5039272;28;20024;-64
2020/12/14 13:38:08;;;;;;;18.35;11.95;;;;;;;;;;5044691;28;20026;-64
2020/12/14 13:40:35;;;;;;;22.05;13.75;;;;;;;;;;5035282;28;20029;-64
2020/12/14 13:43:01;;;;;;;30.55;17.95;;;;;;;;;;5034820;28;20033;-64
2020/12/14 13:45:26;;;;;;;27.38;18.20;;;;;;;;;;5035066;28;20542;-64
2020/12/14 13:47:52;;;;;;;24.35;17.17;;;;;;;;;;5034801;28;20518;-64
2020/12/14 13:50:17;;;;;;;21.13;14.10;;;;;;;;;;5035028;28;20025;-64
2020/12/14 13:52:43;;;;;;;29.35;19.17;;;;;;;;;;5034619;28;20033;-64
2020/12/14 13:55:08;;;;;;;33.47;21.15;;;;;;;;;;5034579;28;20495;-64
2020/12/14 13:57:34;;;;;;;25.10;15.68;;;;;;;;;;5034495;28;20052;-64
2020/12/14 14:00:01;;;;;;;28.65;16.50;;;;;;;;;;5034794;28;20017;-64
2020/12/14 14:02:27;;;;;;;24.02;14.23;;;;;;;;;;5034461;28;20030;-64
2020/12/14 14:04:52;;;;;;;25.67;16.92;;;;;;;;;;5033443;28;20018;-64
2020/12/14 14:07:18;;;;;;;23.95;16.33;;;;;;;;;;5034666;28;20025;-64
2020/12/14 14:09:43;;;;;;;21.10;14.95;;;;;;;;;;5034361;28;20607;-64
2020/12/14 14:12:09;;;;;;;21.15;14.45;;;;;;;;;;5034377;28;20040;-64
2020/12/14 14:14:34;;;;;;;20.40;13.65;;;;;;;;;;5034202;28;20018;-64